Time;durP1;ratioP1;P1;durP2;ratioP2;P2;SDS_P1;SDS_P2;PMS_P1;PMS_P2;Temp;Humidity;BMP_temperature;BMP_pressure;BME280_temperature;BME280_humidity;BME280_pressure;Samples;Min_cycle;Max_cycle;Signal;HPM_P1;HPM_P2
2022/03/29 00:01:16;;;;;;;33.20;16.00;;;;;;;9.29;56.76;99853.48;105779;1274;25709;-61
2022/03/29 00:03:47;;;;;;;36.10;16.10;;;;;;;9.23;56.95;99845.89;105750;1273;24203;-60
2022/03/29 00:06:19;;;;;;;36.20;18.00;;;;;;;9.19;57.01;99849.57;105774;1274;23011;-61
2022/03/29 00:08:50;;;;;;;40.70;17.10;;;;;;;9.14;57.17;99845.63;105858;1274;25410;-61
2022/03/29 00:11:22;;;;;;;37.10;17.30;;;;;;;9.10;57.06;99841.95;105722;1274;22705;-61
2022/03/29 00:13:54;;;;;;;40.60;18.50;;;;;;;9.06;57.16;99841.23;105801;1274;22556;-61
2022/03/29 00:16:25;;;;;;;40.10;17.00;;;;;;;9.01;57.25;99837.95;105664;1274;22553;-61
2022/03/29 00:18:57;;;;;;;39.20;17.70;;;;;;;8.97;57.50;99845.06;105636;1274;22536;-61
2022/03/29 00:21:28;;;;;;;35.80;16.50;;;;;;;8.91;57.57;99844.99;105746;1273;24279;-62
2022/03/29 00:24:00;;;;;;;38.80;16.40;;;;;;;8.87;57.65;99850.29;105804;1272;22759;-60
2022/03/29 00:26:33;;;;;;;35.40;16.00;;;;;;;8.82;57.59;99843.77;105951;1273;25307;-62
2022/03/29 00:29:05;;;;;;;36.60;17.70;;;;;;;8.78;57.69;99839.99;105703;1274;22593;-61
2022/03/29 00:31:37;;;;;;;43.00;18.50;;;;;;;8.74;57.79;99834.65;105728;1274;25428;-63
2022/03/29 00:34:08;;;;;;;38.20;16.30;;;;;;;8.71;57.63;99828.31;105792;1274;22531;-61
2022/03/29 00:36:40;;;;;;;35.80;17.40;;;;;;;8.69;57.77;99828.64;105710;1274;22576;-62
2022/03/29 00:39:12;;;;;;;39.10;16.60;;;;;;;8.66;57.57;99823.71;105866;1274;22722;-62
2022/03/29 00:41:44;;;;;;;39.40;17.70;;;;;;;8.63;57.87;99827.69;105683;1274;24363;-60
2022/03/29 00:44:16;;;;;;;38.70;18.70;;;;;;;8.57;58.05;99824.95;105756;1274;26567;-62
2022/03/29 00:46:48;;;;;;;39.20;19.30;;;;;;;8.51;58.03;99827.59;105703;1274;25362;-62
2022/03/29 00:49:19;;;;;;;38.70;17.60;;;;;;;8.46;58.03;99818.64;105578;1274;24418;-61
2022/03/29 00:51:55;;;;;;;39.00;16.70;;;;;;;8.41;58.10;99822.38;105627;1274;24419;-63
2022/03/29 00:54:28;;;;;;;36.70;18.30;;;;;;;8.35;58.26;99817.85;105815;1274;25254;-61
2022/03/29 00:57:02;;;;;;;37.60;17.00;;;;;;;8.29;58.64;99822.54;105793;1274;23215;-61
2022/03/29 00:59:34;;;;;;;40.20;19.20;;;;;;;8.22;58.93;99818.87;105760;1274;22477;-61
2022/03/29 01:02:06;;;;;;;37.80;17.60;;;;;;;8.15;58.99;99819.84;105742;1274;22531;-61
2022/03/29 01:04:38;;;;;;;38.10;17.60;;;;;;;8.09;59.40;99815.70;105711;1274;22543;-62
2022/03/29 01:07:10;;;;;;;43.40;19.30;;;;;;;8.03;59.70;99816.48;105924;1274;25393;-62
2022/03/29 01:09:42;;;;;;;41.10;18.40;;;;;;;7.96;59.93;99815.31;105760;1274;22580;-62
2022/03/29 01:12:15;;;;;;;41.60;19.60;;;;;;;7.92;60.05;99817.80;105784;1274;22614;-63
2022/03/29 01:14:48;;;;;;;42.30;18.50;;;;;;;7.90;60.30;99821.19;105678;1274;25482;-61
2022/03/29 01:20:13;;;;;;;40.30;20.00;;;;;;;7.80;60.67;99820.30;105550;1273;24243;-61
2022/03/29 01:22:47;;;;;;;42.60;19.10;;;;;;;7.75;60.87;99819.50;105942;1274;22535;-59
2022/03/29 01:25:20;;;;;;;40.10;17.90;;;;;;;7.72;61.16;99811.97;105995;1274;24385;-61
2022/03/29 01:27:52;;;;;;;39.10;18.10;;;;;;;7.70;61.15;99815.30;105838;1273;22588;-63
2022/03/29 01:30:24;;;;;;;39.50;17.70;;;;;;;7.68;61.27;99821.59;105934;1273;25342;-62
2022/03/29 01:32:57;;;;;;;39.20;17.90;;;;;;;7.66;61.44;99828.61;105841;1273;24357;-62
2022/03/29 01:35:30;;;;;;;39.20;17.10;;;;;;;7.61;61.89;99833.14;105920;1274;24301;-60
2022/03/29 01:38:02;;;;;;;45.50;16.70;;;;;;;7.52;62.33;99835.94;105785;1274;23160;-61
2022/03/29 01:40:34;;;;;;;35.50;16.10;;;;;;;7.46;62.52;99841.23;105794;1274;23208;-61
2022/03/29 01:43:05;;;;;;;34.30;15.90;;;;;;;7.44;62.99;99832.35;105793;1274;22537;-64
2022/03/29 01:45:37;;;;;;;35.70;15.20;;;;;;;7.43;63.17;99828.56;105982;1274;24302;-60
2022/03/29 01:48:09;;;;;;;32.10;14.00;;;;;;;7.45;63.49;99828.71;105826;1274;26079;-63
2022/03/29 01:50:41;;;;;;;35.90;15.40;;;;;;;7.49;63.93;99824.35;105739;1274;25656;-60
2022/03/29 01:53:24;;;;;;;34.50;13.60;;;;;;;7.50;64.10;99819.92;105620;1274;25483;-62
2022/03/29 01:56:00;;;;;;;29.90;13.90;;;;;;;7.49;64.29;99813.85;105778;1273;22571;-62
2022/03/29 01:58:31;;;;;;;32.60;15.20;;;;;;;7.49;64.29;99807.84;105698;1274;24247;-61
2022/03/29 02:01:03;;;;;;;31.90;15.30;;;;;;;7.48;64.38;99806.36;105724;1272;26772;-61
2022/03/29 02:03:35;;;;;;;34.50;14.20;;;;;;;7.46;64.60;99803.93;105772;1272;24225;-62
2022/03/29 02:06:08;;;;;;;31.20;14.40;;;;;;;7.42;64.90;99796.82;105755;1274;23212;-63
2022/03/29 02:08:41;;;;;;;35.90;14.80;;;;;;;7.39;64.99;99789.11;105781;1272;22564;-62
2022/03/29 02:11:16;;;;;;;37.70;15.20;;;;;;;7.37;65.10;99781.96;105745;1273;26515;-60
2022/03/29 02:13:48;;;;;;;27.20;11.90;;;;;;;7.38;65.66;99787.58;105731;1274;26553;-62
2022/03/29 02:16:19;;;;;;;31.60;14.10;;;;;;;7.39;65.54;99787.71;105796;1274;26605;-61
2022/03/29 02:18:50;;;;;;;29.50;12.50;;;;;;;7.39;65.71;99788.92;105713;1274;22573;-60
2022/03/29 02:21:22;;;;;;;30.90;12.70;;;;;;;7.38;65.81;99784.06;106841;1261;22665;-59
2022/03/29 02:23:53;;;;;;;32.80;14.00;;;;;;;7.37;65.95;99772.77;106872;1268;22591;-57
2022/03/29 02:26:25;;;;;;;31.40;12.70;;;;;;;7.36;65.89;99777.55;106874;1268;24354;-56
2022/03/29 02:28:57;;;;;;;28.60;11.90;;;;;;;7.37;65.76;99774.68;106911;1268;22598;-63
2022/03/29 02:31:28;;;;;;;26.40;10.60;;;;;;;7.38;65.69;99770.20;106589;1268;395195;-60
2022/03/29 02:33:59;;;;;;;26.80;10.50;;;;;;;7.38;65.72;99765.60;106762;1268;22536;-57
2022/03/29 02:36:31;;;;;;;25.90;9.40;;;;;;;7.37;65.67;99766.10;106785;1268;26500;-58
2022/03/29 02:39:03;;;;;;;26.70;10.60;;;;;;;7.37;65.60;99768.42;106773;1268;22525;-58
2022/03/29 02:41:34;;;;;;;25.20;9.40;;;;;;;7.35;65.60;99762.03;106760;1268;25374;-58
2022/03/29 02:44:06;;;;;;;24.40;9.60;;;;;;;7.34;65.58;99762.24;106795;1268;22548;-55
2022/03/29 02:46:38;;;;;;;22.00;9.50;;;;;;;7.33;65.53;99759.30;106845;1268;22532;-59
2022/03/29 02:49:09;;;;;;;23.40;8.80;;;;;;;7.31;65.58;99758.35;106863;1268;22521;-58
2022/03/29 02:51:41;;;;;;;24.20;9.90;;;;;;;7.30;65.49;99759.18;106652;1268;24230;-58
2022/03/29 02:54:14;;;;;;;28.10;10.60;;;;;;;7.30;65.50;99760.78;106767;1267;25372;-58
2022/03/29 02:56:46;;;;;;;24.60;10.10;;;;;;;7.29;65.41;99764.16;106775;1268;22599;-58
2022/03/29 02:59:18;;;;;;;27.40;10.30;;;;;;;7.30;65.34;99760.44;106615;1268;26506;-58
2022/03/29 03:01:49;;;;;;;28.60;10.10;;;;;;;7.32;65.27;99760.50;106640;1268;22537;-61
2022/03/29 03:04:22;;;;;;;28.30;10.90;;;;;;;7.33;65.28;99757.78;106762;1268;24951;-59
2022/03/29 03:06:53;;;;;;;26.90;11.10;;;;;;;7.34;65.27;99755.14;106622;1268;24258;-57
2022/03/29 03:09:25;;;;;;;23.50;9.30;;;;;;;7.35;65.20;99754.04;106705;1268;23283;-61
2022/03/29 03:11:56;;;;;;;27.10;10.40;;;;;;;7.35;65.26;99754.10;106737;1268;22642;-57
2022/03/29 03:14:28;;;;;;;26.00;10.00;;;;;;;7.35;65.24;99746.20;106640;1268;22562;-57
2022/03/29 03:16:59;;;;;;;25.80;10.40;;;;;;;7.33;65.25;99745.21;106706;1268;24277;-59
2022/03/29 03:19:30;;;;;;;28.10;11.40;;;;;;;7.33;65.31;99741.37;106728;1268;22711;-58
2022/03/29 03:22:02;;;;;;;29.00;13.40;;;;;;;7.32;65.33;99740.59;106719;1268;22531;-57
2022/03/29 03:24:33;;;;;;;28.00;11.10;;;;;;;7.31;65.35;99737.85;106850;1268;24331;-60
2022/03/29 03:27:06;;;;;;;27.30;11.70;;;;;;;7.29;65.35;99736.45;106655;1268;22550;-57
2022/03/29 03:29:38;;;;;;;28.00;11.60;;;;;;;7.28;65.35;99732.47;106673;1268;24049;-61
2022/03/29 03:32:10;;;;;;;30.30;11.90;;;;;;;7.25;65.40;99728.66;106844;1268;22550;-58
2022/03/29 03:34:43;;;;;;;27.50;11.20;;;;;;;7.20;65.40;99730.22;107056;1268;22573;-58
2022/03/29 03:37:14;;;;;;;25.50;9.70;;;;;;;7.17;65.38;99730.55;106590;1268;22691;-57
2022/03/29 03:39:45;;;;;;;29.30;11.70;;;;;;;7.13;65.34;99738.02;106856;1268;24259;-59
2022/03/29 03:42:17;;;;;;;27.30;10.40;;;;;;;7.08;65.41;99742.08;106703;1268;24227;-57
2022/03/29 03:44:49;;;;;;;26.50;10.80;;;;;;;7.04;65.30;99742.80;106436;1268;23797;-59
2022/03/29 03:47:20;;;;;;;29.50;11.40;;;;;;;7.00;65.26;99742.78;106575;1268;22544;-59
2022/03/29 03:49:52;;;;;;;31.30;11.70;;;;;;;6.95;65.39;99743.38;106344;1268;22534;-58
2022/03/29 03:52:23;;;;;;;28.60;11.00;;;;;;;6.91;65.34;99746.34;106357;1268;22575;-59
2022/03/29 03:54:56;;;;;;;24.50;10.30;;;;;;;6.87;65.24;99743.40;106405;1267;22551;-60
2022/03/29 03:57:27;;;;;;;28.10;10.80;;;;;;;6.84;65.35;99743.73;106622;1268;23897;-58
2022/03/29 04:00:00;;;;;;;22.40;9.40;;;;;;;6.79;65.37;99743.19;106591;1268;25372;-59
2022/03/29 04:02:32;;;;;;;26.90;10.40;;;;;;;6.72;65.55;99743.20;106746;1268;22519;-58
2022/03/29 04:05:05;;;;;;;26.70;10.60;;;;;;;6.65;65.53;99745.00;106469;1268;22511;-56
2022/03/29 04:07:37;;;;;;;26.90;10.50;;;;;;;6.58;65.52;99746.33;106669;1268;22573;-57
2022/03/29 04:10:10;;;;;;;27.90;10.80;;;;;;;6.52;65.52;99750.90;106599;1268;22961;-57
2022/03/29 04:12:42;;;;;;;27.80;9.10;;;;;;;6.45;65.56;99755.16;106637;1268;22698;-58
2022/03/29 04:15:15;;;;;;;28.10;10.40;;;;;;;6.39;65.71;99759.31;106664;1268;23455;-56
2022/03/29 04:17:46;;;;;;;28.30;10.40;;;;;;;6.32;65.95;99757.56;106794;1268;22544;-58
2022/03/29 04:20:17;;;;;;;27.90;9.60;;;;;;;6.26;65.99;99759.50;106632;1268;23033;-59
2022/03/29 04:22:49;;;;;;;25.30;9.40;;;;;;;6.19;65.83;99758.32;106608;1268;25303;-61
2022/03/29 04:25:21;;;;;;;27.30;9.90;;;;;;;6.12;65.96;99759.83;107022;1268;22605;-60
2022/03/29 04:27:52;;;;;;;22.00;9.00;;;;;;;6.02;66.07;99760.98;106481;1268;22527;-54
2022/03/29 04:30:24;;;;;;;29.80;10.10;;;;;;;5.95;66.03;99758.05;106335;1268;22553;-54
2022/03/29 04:32:55;;;;;;;29.50;9.70;;;;;;;5.91;66.09;99756.33;106459;1266;22580;-54
2022/03/29 04:35:27;;;;;;;23.40;9.20;;;;;;;5.88;66.00;99754.20;106324;1268;22545;-55
2022/03/29 04:37:59;;;;;;;24.90;9.70;;;;;;;5.87;65.89;99754.34;106518;1268;22569;-57
2022/03/29 04:40:30;;;;;;;25.90;9.60;;;;;;;5.87;65.70;99752.88;106434;1268;23116;-57
2022/03/29 04:43:02;;;;;;;22.40;9.00;;;;;;;5.89;65.54;99752.36;106259;1268;26606;-53
2022/03/29 04:45:34;;;;;;;24.70;9.20;;;;;;;5.90;65.52;99753.11;106448;1268;22583;-59
2022/03/29 04:48:06;;;;;;;22.00;8.60;;;;;;;5.89;65.46;99756.38;106739;1267;22774;-59
2022/03/29 04:50:37;;;;;;;25.70;9.20;;;;;;;5.88;65.63;99760.55;106295;1268;25411;-56
2022/03/29 04:53:09;;;;;;;24.30;9.10;;;;;;;5.85;65.69;99764.06;106388;1268;22560;-55
2022/03/29 04:55:41;;;;;;;24.40;9.10;;;;;;;5.82;65.63;99768.98;106379;1268;26299;-60
2022/03/29 04:58:12;;;;;;;25.50;8.80;;;;;;;5.79;66.35;99768.72;106332;1268;22557;-56
2022/03/29 05:00:44;;;;;;;24.80;7.90;;;;;;;5.77;66.27;99772.14;106327;1268;24218;-56
2022/03/29 05:03:15;;;;;;;22.80;8.40;;;;;;;5.73;66.53;99767.38;106233;1268;22542;-57
2022/03/29 05:05:47;;;;;;;26.80;8.10;;;;;;;5.67;66.62;99766.50;109438;1267;24656;-56
2022/03/29 05:08:19;;;;;;;24.60;8.10;;;;;;;5.63;67.00;99765.02;106233;1268;22531;-57
2022/03/29 05:10:51;;;;;;;25.80;8.30;;;;;;;5.59;67.04;99763.03;106405;1268;24711;-59
2022/03/29 05:13:23;;;;;;;25.60;8.60;;;;;;;5.57;67.12;99763.62;106276;1268;22528;-57
2022/03/29 05:15:55;;;;;;;24.70;8.90;;;;;;;5.53;67.35;99761.63;106369;1268;25321;-55
2022/03/29 05:18:26;;;;;;;25.90;8.20;;;;;;;5.49;67.42;99765.49;106246;1268;22756;-58
2022/03/29 05:20:58;;;;;;;21.40;7.50;;;;;;;5.48;67.56;99766.96;106167;1268;22521;-57
2022/03/29 05:23:30;;;;;;;23.50;8.10;;;;;;;5.48;67.27;99768.45;106312;1268;22768;-56
2022/03/29 05:26:02;;;;;;;29.20;9.00;;;;;;;5.52;67.40;99771.13;106050;1268;22815;-57
2022/03/29 05:28:34;;;;;;;27.10;7.70;;;;;;;5.56;67.30;99773.05;106141;1268;22544;-59
2022/03/29 05:31:06;;;;;;;24.50;8.90;;;;;;;5.61;67.46;99777.29;106367;1268;25254;-56
2022/03/29 05:33:38;;;;;;;25.30;8.90;;;;;;;5.64;67.79;99780.06;106385;1268;22540;-54
2022/03/29 05:36:12;;;;;;;25.40;8.10;;;;;;;5.67;67.76;99781.91;106336;1268;24204;-55
2022/03/29 05:38:49;;;;;;;26.20;7.80;;;;;;;5.70;68.05;99780.01;106157;1268;22654;-55
2022/03/29 05:41:22;;;;;;;24.50;8.00;;;;;;;5.72;68.25;99780.87;106228;1268;25255;-56
2022/03/29 05:43:54;;;;;;;27.30;8.50;;;;;;;5.73;68.48;99778.44;106286;1268;22522;-57
2022/03/29 05:49:17;;;;;;;23.20;8.70;;;;;;;5.83;69.14;99781.61;106112;1268;22591;-57
2022/03/29 05:51:52;;;;;;;23.60;7.30;;;;;;;5.90;69.18;99785.25;106029;1268;22528;-58
2022/03/29 05:54:24;;;;;;;22.90;7.50;;;;;;;6.00;69.66;99788.01;106280;1268;22579;-56
2022/03/29 05:56:56;;;;;;;18.90;7.00;;;;;;;6.09;69.76;99784.98;106195;1268;22742;-57
2022/03/29 05:59:27;;;;;;;27.20;7.50;;;;;;;6.19;69.91;99786.06;106272;1268;25242;-54
2022/03/29 06:02:04;;;;;;;21.60;7.40;;;;;;;6.27;69.74;99783.89;106338;1268;22983;-57
2022/03/29 06:04:36;;;;;;;18.10;5.80;;;;;;;6.37;69.75;99786.98;106303;1267;25547;-57
2022/03/29 06:07:08;;;;;;;25.50;6.40;;;;;;;6.45;69.74;99787.02;106429;1268;22551;-55
2022/03/29 06:09:43;;;;;;;18.90;6.40;;;;;;;6.53;69.67;99786.55;106287;1268;25642;-56
2022/03/29 06:12:20;;;;;;;23.60;7.00;;;;;;;6.63;70.00;99789.42;106693;1268;24220;-56
2022/03/29 06:14:54;;;;;;;21.40;6.90;;;;;;;6.71;69.64;99786.51;106373;1268;25379;-59
2022/03/29 06:17:27;;;;;;;23.70;7.50;;;;;;;6.79;69.73;99789.22;106418;1268;22560;-61
2022/03/29 06:19:59;;;;;;;24.20;8.10;;;;;;;6.86;69.67;99790.35;106286;1268;22531;-58
2022/03/29 06:22:32;;;;;;;26.50;8.00;;;;;;;6.93;69.56;99792.96;106118;1271;22528;-55
2022/03/29 06:25:03;;;;;;;18.10;6.90;;;;;;;7.00;69.57;99793.44;105995;1271;22554;-57
2022/03/29 06:27:35;;;;;;;24.20;8.20;;;;;;;7.04;69.40;99794.82;107536;1271;25476;-54
2022/03/29 06:30:09;;;;;;;25.20;9.70;;;;;;;7.09;69.33;99795.80;105972;1271;22544;-58
2022/03/29 06:32:49;;;;;;;21.30;8.50;;;;;;;7.14;69.32;99795.38;106088;1271;24693;-60
2022/03/29 06:35:25;;;;;;;22.80;7.90;;;;;;;7.22;69.14;99799.63;106070;1271;22568;-58
2022/03/29 06:38:00;;;;;;;25.90;8.20;;;;;;;7.30;69.07;99800.61;105904;1270;22802;-54
2022/03/29 06:40:31;;;;;;;21.80;6.90;;;;;;;7.37;68.91;99803.02;105942;1271;24248;-56
2022/03/29 06:43:04;;;;;;;23.80;6.80;;;;;;;7.42;68.70;99801.36;105998;1271;24333;-56
2022/03/29 06:45:36;;;;;;;20.70;7.50;;;;;;;7.47;68.57;99802.94;105916;1271;22581;-55
2022/03/29 06:48:08;;;;;;;21.00;7.00;;;;;;;7.50;68.38;99798.38;105833;1271;23006;-59
2022/03/29 06:50:40;;;;;;;19.00;6.40;;;;;;;7.56;68.23;99795.29;105952;1271;22667;-57
2022/03/29 06:53:11;;;;;;;20.10;6.00;;;;;;;7.59;68.27;99795.21;105885;1271;24056;-60
2022/03/29 06:55:43;;;;;;;18.10;6.20;;;;;;;7.60;68.31;99792.61;105904;1271;22711;-57
2022/03/29 06:58:14;;;;;;;24.40;6.20;;;;;;;7.64;68.33;99798.21;105909;1271;22560;-54
2022/03/29 07:00:46;;;;;;;22.20;7.30;;;;;;;7.66;68.16;99801.69;105982;1270;25376;-55
2022/03/29 07:03:17;;;;;;;18.90;6.20;;;;;;;7.68;68.01;99804.61;106040;1271;22561;-57
2022/03/29 07:05:50;;;;;;;17.80;5.80;;;;;;;7.72;67.86;99804.16;106019;1271;22550;-60
2022/03/29 07:08:22;;;;;;;15.90;5.60;;;;;;;7.77;67.75;99809.83;105987;1271;24332;-55
2022/03/29 07:13:44;;;;;;;20.00;7.40;;;;;;;7.74;67.56;99805.61;105830;1271;25301;-55
2022/03/29 07:16:16;;;;;;;18.00;5.90;;;;;;;7.71;67.71;99801.20;106061;1271;25546;-57
2022/03/29 07:18:47;;;;;;;19.50;6.80;;;;;;;7.72;67.79;99797.58;105891;1271;22560;-55
2022/03/29 07:21:19;;;;;;;23.70;7.40;;;;;;;7.75;67.85;99801.34;106155;1270;22545;-55
2022/03/29 07:23:51;;;;;;;22.40;7.60;;;;;;;7.77;67.65;99796.84;106057;1270;22708;-56
2022/03/29 07:26:22;;;;;;;23.00;7.30;;;;;;;7.78;67.80;99794.54;106090;1270;24273;-57
2022/03/29 07:28:54;;;;;;;20.40;7.20;;;;;;;7.81;67.85;99794.46;106175;1270;22554;-54
2022/03/29 07:31:28;;;;;;;19.70;6.70;;;;;;;7.84;67.82;99793.50;106223;1270;22569;-55
2022/03/29 07:34:04;;;;;;;22.00;7.60;;;;;;;7.87;67.62;99798.42;106092;1270;22646;-58
2022/03/29 07:36:36;;;;;;;20.30;6.40;;;;;;;7.89;67.63;99801.82;106272;1270;24366;-58
2022/03/29 07:39:08;;;;;;;22.30;6.90;;;;;;;7.90;67.70;99795.92;106206;1270;24331;-58
2022/03/29 07:41:41;;;;;;;23.10;7.50;;;;;;;7.93;67.59;99794.48;106129;1270;25531;-55
2022/03/29 07:44:13;;;;;;;22.30;7.50;;;;;;;7.96;67.55;99793.94;106127;1270;22912;-56
2022/03/29 07:46:45;;;;;;;20.90;8.40;;;;;;;8.00;67.52;99794.68;106118;1270;24380;-56
2022/03/29 07:49:17;;;;;;;30.90;9.10;;;;;;;8.06;67.45;99792.64;106085;1270;27511;-57
2022/03/29 07:51:50;;;;;;;24.10;7.80;;;;;;;8.12;67.21;99795.85;106017;1270;22553;-60
2022/03/29 07:54:22;;;;;;;22.20;8.50;;;;;;;8.17;67.07;99791.16;106132;1270;22670;-55
2022/03/29 07:56:53;;;;;;;25.90;7.70;;;;;;;8.21;66.98;99787.05;106056;1270;24342;-56
2022/03/29 07:59:25;;;;;;;27.80;9.90;;;;;;;8.26;66.93;99787.94;106522;1270;24427;-57
2022/03/29 08:01:58;;;;;;;31.90;12.10;;;;;;;8.32;67.05;99785.33;106111;1270;25475;-57
2022/03/29 08:04:30;;;;;;;38.70;14.70;;;;;;;8.35;66.77;99791.40;106097;1270;24434;-57
2022/03/29 08:07:03;;;;;;;40.30;14.80;;;;;;;8.30;66.91;99789.65;106133;1270;24406;-58
2022/03/29 08:09:34;;;;;;;35.20;14.30;;;;;;;8.30;67.03;99782.92;106030;1270;22571;-56
2022/03/29 08:12:07;;;;;;;40.50;16.10;;;;;;;8.33;66.89;99779.19;106029;1270;24372;-57
2022/03/29 08:14:40;;;;;;;39.90;15.70;;;;;;;8.37;66.70;99778.06;106017;1270;22528;-56
2022/03/29 08:17:13;;;;;;;44.40;17.20;;;;;;;8.43;66.49;99776.60;106084;1270;22607;-55
2022/03/29 08:19:45;;;;;;;41.70;16.00;;;;;;;8.47;66.47;99771.29;106276;1270;24331;-54
2022/03/29 08:22:18;;;;;;;40.90;15.80;;;;;;;8.52;66.34;99772.60;106675;1262;22546;-59
2022/03/29 08:24:50;;;;;;;40.20;17.10;;;;;;;8.58;66.23;99773.58;106123;1269;22547;-56
2022/03/29 08:27:22;;;;;;;34.30;15.90;;;;;;;8.60;66.12;99773.05;106184;1270;25440;-59
2022/03/29 08:29:55;;;;;;;38.40;15.80;;;;;;;8.62;66.07;99775.12;106293;1268;22528;-59
2022/03/29 08:32:27;;;;;;;36.10;15.30;;;;;;;8.60;66.20;99773.92;106168;1268;22642;-57
2022/03/29 08:34:59;;;;;;;32.70;13.00;;;;;;;8.66;65.86;99773.38;106123;1268;25522;-57
2022/03/29 08:37:30;;;;;;;31.80;13.50;;;;;;;8.71;65.78;99771.84;106073;1268;24311;-56
2022/03/29 08:40:02;;;;;;;33.10;14.00;;;;;;;8.76;65.82;99774.17;106084;1268;26329;-59
2022/03/29 08:42:34;;;;;;;31.20;13.30;;;;;;;8.83;65.95;99767.41;106070;1268;25068;-56
2022/03/29 08:45:09;;;;;;;37.00;15.30;;;;;;;8.89;65.63;99765.20;106085;1268;22556;-61
2022/03/29 08:47:43;;;;;;;31.80;12.50;;;;;;;8.92;65.56;99771.67;106388;1268;22555;-57
2022/03/29 08:50:16;;;;;;;30.50;12.70;;;;;;;8.90;65.16;99774.48;106120;1268;23609;-57
2022/03/29 08:52:51;;;;;;;30.90;14.50;;;;;;;8.86;65.42;99770.41;106247;1268;23939;-60
2022/03/29 08:55:25;;;;;;;33.80;14.60;;;;;;;8.89;65.67;99769.95;106157;1268;22528;-56
2022/03/29 08:57:56;;;;;;;34.50;13.90;;;;;;;8.93;65.38;99771.85;106004;1271;23191;-57
2022/03/29 09:00:29;;;;;;;38.30;14.90;;;;;;;8.99;65.16;99777.11;105966;1269;24294;-59
2022/03/29 09:03:02;;;;;;;34.60;15.10;;;;;;;9.03;65.22;99778.80;106025;1271;24412;-58
2022/03/29 09:05:34;;;;;;;35.00;14.70;;;;;;;9.06;65.15;99774.45;106197;1270;26205;-57
2022/03/29 09:08:11;;;;;;;35.00;14.00;;;;;;;9.05;65.08;99777.21;106161;1271;22550;-58
2022/03/29 09:10:45;;;;;;;31.70;14.60;;;;;;;9.05;64.90;99773.52;105810;1271;22544;-57
2022/03/29 09:13:21;;;;;;;38.90;17.30;;;;;;;9.11;64.89;99772.73;106015;1270;22547;-58
2022/03/29 09:15:55;;;;;;;32.70;15.50;;;;;;;9.19;64.34;99770.48;106026;1271;25349;-57
2022/03/29 09:18:28;;;;;;;33.90;15.20;;;;;;;9.21;63.85;99771.63;106257;1270;22553;-59
2022/03/29 09:21:13;;;;;;;34.00;15.60;;;;;;;9.21;63.87;99771.48;106221;1271;25372;-57
2022/03/29 09:24:04;;;;;;;35.60;15.30;;;;;;;9.21;63.64;99767.17;105998;1271;22551;-58
2022/03/29 09:26:38;;;;;;;35.70;15.70;;;;;;;9.20;63.61;99760.92;105931;1271;22880;-53
2022/03/29 09:29:21;;;;;;;33.50;15.50;;;;;;;9.17;63.91;99761.89;106109;1270;25336;-57
2022/03/29 09:32:07;;;;;;;36.80;15.90;;;;;;;9.08;63.57;99759.86;105971;1271;25352;-58
2022/03/29 09:34:41;;;;;;;34.90;15.40;;;;;;;8.99;63.64;99758.68;106026;1271;25524;-58
2022/03/29 09:37:12;;;;;;;37.90;15.70;;;;;;;9.00;63.75;99756.88;105896;1271;22560;-55
2022/03/29 09:39:47;;;;;;;34.50;16.10;;;;;;;9.09;63.79;99757.24;106015;1271;22760;-56
2022/03/29 09:42:20;;;;;;;32.40;14.50;;;;;;;9.16;63.68;99747.17;106000;1270;22846;-57
2022/03/29 09:44:54;;;;;;;33.10;13.70;;;;;;;9.23;63.30;99750.89;106106;1271;22710;-57
2022/03/29 09:47:29;;;;;;;32.60;14.20;;;;;;;9.28;63.16;99744.66;106015;1271;24253;-57
2022/03/29 09:50:05;;;;;;;29.50;14.20;;;;;;;9.33;62.70;99743.56;106029;1271;22559;-55
2022/03/29 09:52:39;;;;;;;32.20;13.90;;;;;;;9.31;62.17;99748.89;105942;1270;24176;-58
2022/03/29 09:55:15;;;;;;;34.40;15.60;;;;;;;9.19;62.65;99742.48;106067;1271;24302;-56
2022/03/29 09:57:49;;;;;;;35.40;15.80;;;;;;;9.12;62.62;99740.78;106008;1270;25534;-56
2022/03/29 10:00:36;;;;;;;32.80;14.40;;;;;;;9.10;62.70;99738.02;106112;1271;25236;-58
2022/03/29 10:03:10;;;;;;;30.60;13.80;;;;;;;9.04;62.88;99733.76;106153;1271;22532;-57
2022/03/29 10:05:43;;;;;;;32.30;14.20;;;;;;;9.04;62.46;99734.17;106169;1271;25293;-57
2022/03/29 10:11:10;;;;;;;31.80;13.40;;;;;;;9.07;63.32;99723.70;105526;1276;24279;-56
2022/03/29 10:13:42;;;;;;;31.10;13.10;;;;;;;9.06;62.96;99718.04;105600;1275;24003;-61
2022/03/29 10:16:16;;;;;;;32.50;13.80;;;;;;;9.06;62.89;99717.89;105852;1274;25569;-57
2022/03/29 10:18:48;;;;;;;30.20;13.60;;;;;;;9.02;62.85;99718.55;105547;1276;25586;-58
2022/03/29 10:21:21;;;;;;;35.10;15.10;;;;;;;8.98;63.02;99712.99;105834;1274;22945;-57
2022/03/29 10:23:53;;;;;;;28.60;13.60;;;;;;;8.96;63.00;99721.34;105625;1274;22528;-57
2022/03/29 10:26:27;;;;;;;33.80;15.20;;;;;;;8.89;62.93;99714.54;105743;1274;25362;-53
2022/03/29 10:28:59;;;;;;;37.00;15.60;;;;;;;8.91;63.14;99724.80;105757;1274;22595;-55
2022/03/29 10:31:33;;;;;;;37.20;14.90;;;;;;;8.95;62.93;99725.12;105696;1274;22617;-59
2022/03/29 10:34:20;;;;;;;35.10;15.70;;;;;;;8.90;62.77;99716.23;105817;1274;25622;-57
2022/03/29 10:37:15;;;;;;;34.60;15.40;;;;;;;8.94;63.00;99717.20;105628;1274;23126;-56
2022/03/29 10:39:50;;;;;;;38.00;16.70;;;;;;;8.97;62.46;99710.96;105669;1274;24415;-59
2022/03/29 10:42:36;;;;;;;35.70;14.20;;;;;;;8.93;62.52;99710.05;105809;1274;26504;-57
2022/03/29 10:45:15;;;;;;;30.10;14.60;;;;;;;8.94;62.43;99703.88;105963;1274;23753;-60
2022/03/29 10:47:49;;;;;;;30.00;15.50;;;;;;;9.02;62.59;99709.94;105620;1274;22549;-61
2022/03/29 10:50:21;;;;;;;34.00;16.10;;;;;;;9.12;62.44;99704.52;106085;1268;22554;-59
2022/03/29 10:52:53;;;;;;;32.40;14.20;;;;;;;9.19;62.62;99700.90;106240;1268;25383;-57
2022/03/29 10:55:29;;;;;;;37.30;16.30;;;;;;;9.26;62.50;99693.84;106253;1268;22544;-59
2022/03/29 10:58:17;;;;;;;37.50;17.00;;;;;;;9.28;62.09;99694.20;106084;1271;22574;-58
2022/03/29 11:00:49;;;;;;;39.50;17.50;;;;;;;9.36;61.99;99690.98;105786;1271;25354;-59
2022/03/29 11:03:22;;;;;;;38.30;16.40;;;;;;;9.43;62.12;99692.81;105988;1271;24221;-58
2022/03/29 11:06:11;;;;;;;35.50;16.70;;;;;;;9.50;61.79;99691.52;105861;1271;24214;-56
2022/03/29 11:08:47;;;;;;;36.30;15.40;;;;;;;9.56;61.72;99690.83;105937;1271;22765;-58
2022/03/29 11:11:39;;;;;;;37.90;17.60;;;;;;;9.64;61.25;99685.06;106072;1271;22584;-58
2022/03/29 11:14:39;;;;;;;35.80;16.70;;;;;;;9.65;60.96;99686.23;105651;1276;25528;-57
2022/03/29 11:17:34;;;;;;;;;;;;;;;9.62;61.00;99688.02;105592;1274;22538;-59
2022/03/29 11:20:34;;;;;;;35.20;16.90;;;;;;;9.67;61.18;99684.59;105206;1279;22903;-60
2022/03/29 11:23:07;;;;;;;38.10;17.20;;;;;;;9.71;60.41;99684.55;105449;1279;22510;-59
2022/03/29 11:25:42;;;;;;;35.40;16.90;;;;;;;9.70;60.58;99684.23;105363;1279;24189;-59
2022/03/29 11:28:17;;;;;;;35.90;16.50;;;;;;;9.70;60.53;99679.82;105387;1279;22578;-57
2022/03/29 11:30:55;;;;;;;37.70;18.00;;;;;;;9.74;60.28;99671.55;105373;1279;22575;-59
2022/03/29 11:33:35;;;;;;;39.10;18.90;;;;;;;9.83;60.41;99669.23;105331;1279;25532;-54
2022/03/29 11:36:10;;;;;;;37.90;17.80;;;;;;;9.86;59.89;99668.66;105342;1279;25441;-58
2022/03/29 11:38:42;;;;;;;41.00;18.60;;;;;;;9.80;59.97;99660.14;105218;1279;25429;-57
2022/03/29 11:41:25;;;;;;;42.50;18.80;;;;;;;9.79;59.94;99649.52;105202;1279;22543;-60
2022/03/29 11:43:59;;;;;;;38.30;19.60;;;;;;;9.83;59.96;99655.20;105246;1279;22640;-56
2022/03/29 11:49:45;;;;;;;41.10;20.30;;;;;;;9.96;59.62;99651.70;102295;1311;545248;-58
2022/03/29 11:52:20;;;;;;;41.70;19.80;;;;;;;9.98;59.97;99640.64;105337;1281;24323;-55
2022/03/29 11:54:53;;;;;;;41.80;20.20;;;;;;;10.03;59.49;99642.45;105357;1281;26559;-58
2022/03/29 11:57:27;;;;;;;43.20;19.70;;;;;;;9.96;59.50;99635.08;105767;1274;22640;-54
2022/03/29 12:00:00;;;;;;;41.80;19.20;;;;;;;9.94;59.47;99630.70;105777;1274;23607;-56
2022/03/29 12:02:40;;;;;;;37.20;16.50;;;;;;;9.93;59.64;99629.21;105806;1274;238303;-56